To NAV CANADA Home Page Login to a new session Search on AWWS site Feedback and Comments Disclaimer Vers la page française équivalente Tips FAQ What's new on the site To the Forecasts and Observations / NOTAM section To "File a Flight Plan" website Publications and other links Update of the User's profile FIC Telephone Numbers My Weather Data Folder Route Weather Data Regional Weather Data Local Weather Data To the Forecasts and Observations / NOTAM section
Request Generated 03/05/2015 at 04:03:43 UTC . Weather information available at that time is displayed.

METAR/TAF

TALOYOAK/NU    

METAR CYYH 050400Z 20006KT 140V210 14SM IC FEW030 SCT080 M37/M41
A2966 RMK SC1AC3 SC TR SLP050=
METAR CYYH 050300Z 24003KT 180V300 15SM IC FEW030 SCT080 M34/M38
A2969 RMK SC1AC3 SC TR FROIN SLP058=
METAR CYYH 050200Z 25005KT 230V290 12SM IC FEW030 SCT080 M34/M38
A2970 RMK SC1AC3 SC TR FROIN SLP062=

TAF CYYH 042338Z 0500/0512 28008KT P6SM IC FEW020 TEMPO 0500/0512 4SM
IC BR
RMK NXT FCST BY 050600Z=
Your time UTC time
Weather data provided by Environment Canada and NAV CANADA